Welcome to Northern Hawkes Bay. New Zealand.
PWS Header
      nz Flag



Hit Counter


W3C Valid W3C Valid logo


    Wairoa

Select any of the Stations below to visit their websites.










Historic Data from Weather Underground
Select the location of interest below. Wairoa is the default. Please have patience, this Data is slow to load in.
Northern Hawkes Bay Historical Data
Daily Summary for May 7, 2017 Units:  English    Metric   Both
« Previous Day
Next Day »
Daily Weekly Monthly Yearly Custom
  High: Low: Average:
Temperature: 65.7 °F 40.5 °F 52 °F
Dew Point: 54.9 °F 40.3 °F 48 °F
Humidity: 99% 61% 87%
Wind Speed: 7.6mph 0mph 2.7mph
Wind Gust: 10.7mph - -
Wind- - WNW
Pressure: 30.4 in 30.3 in -
Precipitation: 0 in    
Historical Graphs
 
 
Tabular Data for May 7, 2017
Time Temperature Dew Point Pressure Wind Wind Speed Wind Gust Humidity Rainfall Rate (Hourly) solar
00:03 44.6 °F 43.9 °F 30.4 in NW 3.1 mph 6 mph 97% 0 in 0 W/m2
00:07 44.8 °F 44.1 °F 30.4 in NNW 2.2 mph 6 mph 97% 0 in 0 W/m2
00:13 45 °F 44.2 °F 30.4 in NNW 3.1 mph 6.9 mph 97% 0 in 0 W/m2
00:18 45 °F 44.2 °F 30.4 in NNW 3.8 mph 6.9 mph 97% 0 in 0 W/m2
00:23 45.1 °F 44.2 °F 30.4 in NW 4.5 mph 6.9 mph 97% 0 in 0 W/m2
00:28 45 °F 44.2 °F 30.4 in NNW 3.8 mph 6.9 mph 97% 0 in 0 W/m2
00:33 45 °F 44.2 °F 30.4 in NNW 3.8 mph 6.9 mph 97% 0 in 0 W/m2
00:38 44.8 °F 44.1 °F 30.4 in NNW 3.1 mph 6 mph 97% 0 in 0 W/m2
00:43 44.6 °F 43.9 °F 30.4 in NNW 2.2 mph 6 mph 97% 0 in 0 W/m2
00:48 44.2 °F 43.7 °F 30.4 in NNW 3.8 mph 5.4 mph 98% 0 in 0 W/m2
00:53 44.2 °F 43.7 °F 30.4 in NNW 2.2 mph 5.4 mph 98% 0 in 0 W/m2
00:58 44.1 °F 43.5 °F 30.4 in NNW 3.8 mph 6 mph 98% 0 in 0 W/m2
01:03 43.9 °F 43.3 °F 30.4 in NNW 3.8 mph 6 mph 98% 0 in 0 W/m2
01:08 43.7 °F 43.2 °F 30.4 in NNW 3.8 mph 6 mph 98% 0 in 0 W/m2
01:13 43.9 °F 43.3 °F 30.4 in NNW 3.8 mph 7.6 mph 98% 0 in 0 W/m2
01:17 43.9 °F 43.3 °F 30.4 in NNW 3.1 mph 7.6 mph 98% 0 in 0 W/m2
01:23 43.7 °F 43.2 °F 30.4 in NNW 3.8 mph 6 mph 98% 0 in 0 W/m2
01:28 43.9 °F 43.3 °F 30.4 in NNW 5.4 mph 6.9 mph 98% 0 in 0 W/m2
01:33 44.1 °F 43.5 °F 30.4 in NNW 5.4 mph 6.9 mph 98% 0 in 0 W/m2
01:38 44.2 °F 43.7 °F 30.4 in NNW 6.9 mph 9.2 mph 98% 0 in 0 W/m2
01:43 44.4 °F 43.9 °F 30.4 in NNW 7.6 mph 9.8 mph 98% 0 in 0 W/m2
01:48 44.2 °F 43.7 °F 30.4 in NNW 6 mph 9.8 mph 98% 0 in 0 W/m2
01:53 44.2 °F 43.7 °F 30.4 in NNW 4.5 mph 9.8 mph 98% 0 in 0 W/m2
01:58 44.1 °F 43.5 °F 30.4 in NNW 3.8 mph 8.3 mph 98% 0 in 0 W/m2
02:03 43.7 °F 43.2 °F 30.4 in North 3.1 mph 7.6 mph 98% 0 in 0 W/m2
02:07 43.5 °F 43 °F 30.4 in NNW 3.1 mph 7.6 mph 98% 0 in 0 W/m2
02:13 43.3 °F 42.8 °F 30.4 in NNW 4.5 mph 6.9 mph 98% 0 in 0 W/m2
02:18 43.3 °F 42.8 °F 30.4 in NNW 3.8 mph 6 mph 98% 0 in 0 W/m2
02:23 43.3 °F 42.8 °F 30.4 in NNW 5.4 mph 6.9 mph 98% 0 in 0 W/m2
02:28 43.5 °F 43 °F 30.4 in NNW 4.5 mph 8.3 mph 98% 0 in 0 W/m2
02:33 43.5 °F 43 °F 30.4 in NNW 3.8 mph 8.3 mph 98% 0 in 0 W/m2
02:38 43.3 °F 42.8 °F 30.4 in NNW 3.8 mph 8.3 mph 98% 0 in 0 W/m2
02:43 43 °F 42.4 °F 30.4 in NNW 3.1 mph 7.6 mph 98% 0 in 0 W/m2
02:47 42.8 °F 42.3 °F 30.4 in NNW 3.8 mph 6 mph 98% 0 in 0 W/m2
02:53 42.8 °F 42.3 °F 30.4 in NNW 4.5 mph 7.6 mph 98% 0 in 0 W/m2
02:58 42.8 °F 42.3 °F 30.4 in NNW 3.8 mph 8.3 mph 98% 0 in 0 W/m2
03:03 42.8 °F 42.3 °F 30.4 in NNW 4.5 mph 8.3 mph 98% 0 in 0 W/m2
03:08 42.8 °F 42.3 °F 30.4 in NNW 3.1 mph 8.3 mph 98% 0 in 0 W/m2
03:14 42.8 °F 42.3 °F 30.4 in NNW 4.5 mph 8.3 mph 98% 0 in 0 W/m2
03:19 42.8 °F 42.3 °F 30.4 in NNW 4.5 mph 9.8 mph 98% 0 in 0 W/m2
03:24 42.8 °F 42.3 °F 30.4 in NNW 3.1 mph 9.8 mph 98% 0 in 0 W/m2
03:29 42.8 °F 42.3 °F 30.4 in NNW 3.1 mph 9.8 mph 98% 0 in 0 W/m2
03:34 42.8 °F 42.3 °F 30.4 in NNW 3.8 mph 7.6 mph 98% 0 in 0 W/m2
03:39 42.8 °F 42.3 °F 30.4 in NNW 4.5 mph 7.6 mph 98% 0 in 0 W/m2
03:44 42.4 °F 42.3 °F 30.4 in NNW 3.8 mph 7.6 mph 99% 0 in 0 W/m2
03:49 42.3 °F 42.1 °F 30.4 in NW 4.5 mph 6.9 mph 99% 0 in 0 W/m2
03:54 42.1 °F 41.7 °F 30.4 in NNW 3.8 mph 6.9 mph 99% 0 in 0 W/m2
03:59 42.1 °F 41.7 °F 30.4 in NNW 3.8 mph 6.9 mph 99% 0 in 0 W/m2
04:04 41.9 °F 41.5 °F 30.4 in NW 4.5 mph 6.9 mph 99% 0 in 0 W/m2
04:09 41.9 °F 41.5 °F 30.4 in NW 4.5 mph 6.9 mph 99% 0 in 0 W/m2
04:14 41.9 °F 41.5 °F 30.4 in NNW 4.5 mph 7.6 mph 99% 0 in 0 W/m2
04:19 41.7 °F 41.5 °F 30.4 in NNW 3.8 mph 7.6 mph 99% 0 in 0 W/m2
04:25 41.7 °F 41.5 °F 30.4 in NW 3.8 mph 8.3 mph 99% 0 in 0 W/m2
04:30 41.5 °F 41.4 °F 30.4 in NW 5.4 mph 8.3 mph 99% 0 in 0 W/m2
04:35 41.5 °F 41.4 °F 30.4 in NW 3.8 mph 7.6 mph 99% 0 in 0 W/m2
04:40 41.7 °F 41.5 °F 30.4 in NNW 3.8 mph 7.6 mph 99% 0 in 0 W/m2
04:45 41.5 °F 41.4 °F 30.4 in NNW 5.4 mph 7.6 mph 99% 0 in 0 W/m2
04:50 41.5 °F 41.4 °F 30.4 in NNW 3.1 mph 7.6 mph 99% 0 in 0 W/m2
04:55 41.5 °F 41.4 °F 30.4 in NNW 4.5 mph 7.6 mph 99% 0 in 0 W/m2
05:00 41.5 °F 41.4 °F 30.4 in NNW 3.8 mph 7.6 mph 99% 0 in 0 W/m2
05:05 41.5 °F 41.4 °F 30.4 in NNW 3.1 mph 7.6 mph 99% 0 in 0 W/m2
05:10 41.5 °F 41.4 °F 30.4 in NNW 3.1 mph 7.6 mph 99% 0 in 0 W/m2
05:15 41.5 °F 41.4 °F 30.4 in NNW 3.1 mph 6 mph 99% 0 in 0 W/m2
05:20 41.4 °F 41.2 °F 30.4 in NW 4.5 mph 6.9 mph 99% 0 in 0 W/m2
05:25 41.5 °F 41.4 °F 30.4 in NW 3.8 mph 6.9 mph 99% 0 in 0 W/m2
05:30 41.4 °F 41.2 °F 30.4 in NNW 4.5 mph 6.9 mph 99% 0 in 0 W/m2
05:35 41.5 °F 41.4 °F 30.4 in NNW 4.5 mph 7.6 mph 99% 0 in 0 W/m2
05:41 41.5 °F 41.4 °F 30.4 in NNW 4.5 mph 9.2 mph 99% 0 in 0 W/m2
05:46 41.5 °F 41.4 °F 30.4 in NW 3.8 mph 9.2 mph 99% 0 in 0 W/m2
05:51 41.4 °F 41.2 °F 30.4 in NNW 6 mph 8.3 mph 99% 0 in 0 W/m2
05:55 41.4 °F 41.2 °F 30.4 in NNW 3.8 mph 8.3 mph 99% 0 in 0 W/m2
06:01 41.2 °F 40.8 °F 30.4 in NNW 5.4 mph 8.3 mph 99% 0 in 0 W/m2
06:05 41.2 °F 40.8 °F 30.4 in North 5.4 mph 9.8 mph 99% 0 in 0 W/m2
06:11 41.2 °F 40.8 °F 30.4 in North 4.5 mph 9.8 mph 99% 0 in 0 W/m2
06:16 41.4 °F 41.2 °F 30.4 in NNW 5.4 mph 10.7 mph 99% 0 in 0 W/m2
06:21 41.4 °F 41.2 °F 30.4 in NNW 4.5 mph 10.7 mph 99% 0 in 0 W/m2
06:26 41.5 °F 41.4 °F 30.4 in NNW 4.5 mph 9.8 mph 99% 0 in 0 W/m2
06:31 41.5 °F 41.4 °F 30.4 in NNW 5.4 mph 9.8 mph 99% 0 in 0 W/m2
06:36 41.4 °F 41.2 °F 30.4 in NNW 6 mph 9.2 mph 99% 0 in 0 W/m2
06:40 41 °F 40.6 °F 30.4 in NNW 3.8 mph 8.3 mph 99% 0 in 0 W/m2
06:46 41 °F 40.6 °F 30.4 in NNW 3.1 mph 8.3 mph 99% 0 in 0 W/m2
06:51 40.8 °F 40.6 °F 30.4 in NNW 4.5 mph 6.9 mph 99% 0 in 0 W/m2
06:55 40.6 °F 40.5 °F 30.4 in NNW 4.5 mph 6.9 mph 99% 0 in 2 W/m2
07:00 40.8 °F 40.6 °F 30.4 in NNW 3.8 mph 7.6 mph 99% 0 in 4 W/m2
07:06 40.6 °F 40.5 °F 30.4 in NNW 3.8 mph 7.6 mph 99% 0 in 7 W/m2
07:11 40.6 °F 40.5 °F 30.4 in NNW 5.4 mph 9.2 mph 99% 0 in 10 W/m2
07:15 40.6 °F 40.5 °F 30.4 in NW 3.8 mph 9.2 mph 99% 0 in 13 W/m2
07:20 40.5 °F 40.3 °F 30.4 in NNW 3.8 mph 8.3 mph 99% 0 in 22 W/m2
07:25 40.8 °F 40.6 °F 30.4 in NNW 3.8 mph 7.6 mph 99% 0 in 58 W/m2
07:30 41.2 °F 40.8 °F 30.4 in NNW 5.4 mph 7.6 mph 99% 0 in 73 W/m2
07:35 41.7 °F 41.5 °F 30.4 in NNW 4.5 mph 7.6 mph 99% 0 in 88 W/m2
07:40 42.1 °F 41.7 °F 30.4 in NW 3.8 mph 7.6 mph 99% 0 in 101 W/m2
07:46 42.4 °F 42.3 °F 30.4 in NW 4.5 mph 7.6 mph 99% 0 in 113 W/m2
07:50 42.8 °F 42.3 °F 30.4 in NW 5.4 mph 9.2 mph 98% 0 in 124 W/m2
07:55 43.2 °F 42.6 °F 30.4 in NNW 4.5 mph 9.2 mph 98% 0 in 135 W/m2
08:00 43.7 °F 43 °F 30.4 in NNW 6 mph 9.2 mph 97% 0 in 148 W/m2
08:06 44.1 °F 43 °F 30.4 in NNW 3.8 mph 8.3 mph 96% 0 in 157 W/m2
08:11 44.4 °F 43.2 °F 30.4 in NNW 5.4 mph 8.3 mph 95% 0 in 171 W/m2
08:15 44.8 °F 43 °F 30.4 in NNW 3.8 mph 9.2 mph 93% 0 in 181 W/m2
08:20 45.7 °F 43.5 °F 30.4 in NNW 4.5 mph 9.2 mph 92% 0 in 192 W/m2
08:25 46.2 °F 43.7 °F 30.4 in NNW 4.5 mph 8.3 mph 91% 0 in 203 W/m2
08:30 46.8 °F 43.7 °F 30.4 in NNW 4.5 mph 8.3 mph 89% 0 in 214 W/m2
08:35 46.9 °F 43.3 °F 30.4 in North 6 mph 9.8 mph 87% 0 in 225 W/m2
08:40 47.1 °F 43.5 °F 30.4 in North 5.4 mph 9.8 mph 87% 0 in 239 W/m2
08:45 47.5 °F 43.9 °F 30.4 in NNW 4.5 mph 9.8 mph 87% 0 in 255 W/m2
08:51 48 °F 44.2 °F 30.4 in NNW 3.8 mph 9.2 mph 87% 0 in 267 W/m2
08:55 48.4 °F 44.1 °F 30.4 in NW 5.4 mph 9.2 mph 85% 0 in 278 W/m2
09:00 48.6 °F 44.1 °F 30.4 in NW 5.4 mph 10.7 mph 84% 0 in 287 W/m2
09:06 48.9 °F 44.2 °F 30.4 in NNW 3.8 mph 10.7 mph 84% 0 in 295 W/m2
09:10 49.6 °F 45 °F 30.4 in NNW 5.4 mph 10.7 mph 84% 0 in 303 W/m2
09:15 50.4 °F 45.3 °F 30.4 in NNW 3.1 mph 8.3 mph 83% 0 in 308 W/m2
09:35 51.6 °F 45.7 °F 30.4 in NNW 5.4 mph 9.2 mph 80% 0 in 101 W/m2
09:40 52.3 °F 45.7 °F 30.4 in North 5.4 mph 8.3 mph 78% 0 in 61 W/m2
09:45 52.7 °F 46 °F 30.4 in NNW 6 mph 8.3 mph 78% 0 in 58 W/m2
09:50 52.9 °F 46.2 °F 30.4 in NNW 5.4 mph 8.3 mph 78% 0 in 56 W/m2
09:55 53.2 °F 46.6 °F 30.4 in NNW 3.8 mph 8.3 mph 78% 0 in 54 W/m2
10:00 53.6 °F 46.2 °F 30.4 in NW 2.2 mph 7.6 mph 76% 0 in 54 W/m2
10:05 54.1 °F 46.4 °F 30.4 in NW 3.8 mph 8.3 mph 75% 0 in 54 W/m2
10:10 54.5 °F 46.8 °F 30.4 in NNW 6 mph 9.2 mph 75% 0 in 56 W/m2
10:15 54.5 °F 46.8 °F 30.4 in NNW 3.8 mph 9.2 mph 75% 0 in 104 W/m2
10:20 55 °F 47.3 °F 30.4 in NW 3.8 mph 8.3 mph 75% 0 in 227 W/m2
10:25 55.2 °F 47.5 °F 30.4 in NW 2.2 mph 8.3 mph 75% 0 in 331 W/m2
10:30 55.9 °F 48 °F 30.4 in NNW 2.2 mph 7.6 mph 75% 0 in 348 W/m2
10:35 56.7 °F 48.7 °F 30.4 in NNW 2.2 mph 6 mph 75% 0 in 355 W/m2
10:40 56.7 °F 48 °F 30.4 in NNW 3.8 mph 7.6 mph 73% 0 in 358 W/m2
10:45 56.7 °F 48.6 °F 30.4 in NNW 3.1 mph 7.6 mph 74% 0 in 365 W/m2
10:50 57 °F 49.3 °F 30.4 in Calm   6.9 mph 75% 0 in 369 W/m2
10:55 57.7 °F 49.5 °F 30.4 in NW 1.6 mph 6 mph 74% 0 in 372 W/m2
11:00 57.9 °F 48.9 °F 30.4 in NW 2.2 mph 5.4 mph 72% 0 in 375 W/m2
11:05 58.1 °F 48.7 °F 30.4 in Calm   5.4 mph 71% 0 in 379 W/m2
11:10 58.6 °F 49.3 °F 30.4 in Calm   4.5 mph 71% 0 in 382 W/m2
11:15 59.5 °F 49.8 °F 30.4 in Calm   3.8 mph 70% 0 in 384 W/m2
11:20 60.1 °F 49.8 °F 30.4 in Calm   2.2 mph 69% 0 in 386 W/m2
11:25 61.7 °F 50.5 °F 30.4 in Calm   2.2 mph 67% 0 in 388 W/m2
11:30 63 °F 50.5 °F 30.4 in Calm     64% 0 in 389 W/m2
11:35 63.9 °F 51.1 °F 30.4 in Calm     63% 0 in 390 W/m2
11:40 64 °F 50.4 °F 30.4 in Calm   3.1 mph 61% 0 in 388 W/m2
11:45 63.7 °F 50.4 °F 30.4 in SSW 3.1 mph 5.4 mph 62% 0 in 387 W/m2
11:51 62.6 °F 49.8 °F 30.4 in SW 3.1 mph 6 mph 63% 0 in 382 W/m2
11:56 61.7 °F 51.1 °F 30.4 in SW 5.4 mph 6.9 mph 68% 0 in 379 W/m2
12:01 61.3 °F 51.1 °F 30.4 in SW 3.1 mph 7.6 mph 69% 0 in 377 W/m2
12:06 61.9 °F 52 °F 30.4 in SW 3.8 mph 7.6 mph 70% 0 in 376 W/m2
12:26 62.2 °F 51.3 °F 30.4 in South 3.8 mph 7.6 mph 67% 0 in 364 W/m2
12:31 62.2 °F 50.7 °F 30.4 in South 3.8 mph 7.6 mph 66% 0 in 360 W/m2
12:36 62.6 °F 49.8 °F 30.4 in South 5.4 mph 7.6 mph 63% 0 in 358 W/m2
12:41 62.8 °F 50.4 °F 30.4 in SSW 4.5 mph 6.9 mph 64% 0 in 354 W/m2
12:46 62.6 °F 50.4 °F 30.3 in SSW 6 mph 8.3 mph 64% 0 in 349 W/m2
12:51 62.4 °F 50.5 °F 30.3 in SSW 3.1 mph 8.3 mph 65% 0 in 343 W/m2
12:56 62.8 °F 50 °F 30.3 in SSW 6.9 mph 8.3 mph 63% 0 in 339 W/m2
13:01 61.9 °F 49.6 °F 30.3 in SSW 4.5 mph 8.3 mph 64% 0 in 331 W/m2
13:06 62.1 °F 49.8 °F 30.3 in SSW 5.4 mph 8.3 mph 64% 0 in 322 W/m2
13:11 62.2 °F 49.5 °F 30.3 in SSW 4.5 mph 7.6 mph 63% 0 in 311 W/m2
13:16 62.4 °F 50.2 °F 30.3 in SSW 3.8 mph 7.6 mph 64% 0 in 293 W/m2
13:21 62.4 °F 50.2 °F 30.3 in SSW 6 mph 7.6 mph 64% 0 in 273 W/m2
13:26 62.8 °F 50.4 °F 30.3 in South 5.4 mph 7.6 mph 64% 0 in 223 W/m2
13:31 62.8 °F 50.9 °F 30.3 in South 5.4 mph 7.6 mph 65% 0 in 177 W/m2
13:36 63 °F 51.1 °F 30.3 in South 5.4 mph 6.9 mph 65% 0 in 134 W/m2
13:41 63.3 °F 51.4 °F 30.3 in South 5.4 mph 7.6 mph 65% 0 in 96 W/m2
13:46 63.3 °F 51.1 °F 30.3 in South 6 mph 7.6 mph 64% 0 in 70 W/m2
13:51 62.6 °F 51.1 °F 30.3 in Calm   8.3 mph 66% 0 in 67 W/m2
13:56 63.9 °F 52 °F 30.3 in SSE 3.1 mph 8.3 mph 65% 0 in 66 W/m2
14:01 63.7 °F 51.3 °F 30.3 in South 3.8 mph 7.6 mph 64% 0 in 66 W/m2
14:06 63.9 °F 52 °F 30.3 in South 3.8 mph 7.6 mph 65% 0 in 67 W/m2
14:12 64 °F 52.9 °F 30.3 in South 6.9 mph 7.6 mph 67% 0 in 70 W/m2
14:17 63.3 °F 51.8 °F 30.3 in South 5.4 mph 8.3 mph 66% 0 in 71 W/m2
14:22 63.1 °F 52.3 °F 30.3 in South 5.4 mph 8.3 mph 68% 0 in 73 W/m2
14:27 63.5 °F 52.9 °F 30.3 in South 5.4 mph 7.6 mph 68% 0 in 74 W/m2
14:32 63.7 °F 52.9 °F 30.3 in South 3.8 mph 6.9 mph 68% 0 in 74 W/m2
14:37 64 °F 53.8 °F 30.3 in South 3.8 mph 6.9 mph 69% 0 in 75 W/m2
14:42 64 °F 53.8 °F 30.3 in SSW 3.1 mph 6.9 mph 69% 0 in 76 W/m2
14:47 64.4 °F 54 °F 30.3 in SSW 2.2 mph 6.9 mph 69% 0 in 75 W/m2
14:52 64.4 °F 53.6 °F 30.3 in SSW 3.8 mph 6.9 mph 68% 0 in 87 W/m2
14:57 64.4 °F 53.6 °F 30.3 in South 3.8 mph 6.9 mph 68% 0 in 115 W/m2
15:02 64.4 °F 53.6 °F 30.3 in South 3.8 mph 7.6 mph 68% 0 in 155 W/m2
15:07 63.9 °F 53.4 °F 30.3 in SSW 3.1 mph 7.6 mph 69% 0 in 183 W/m2
15:12 63.7 °F 53.8 °F 30.3 in South 5.4 mph 6.9 mph 70% 0 in 186 W/m2
15:17 64.2 °F 54.7 °F 30.3 in South 4.5 mph 6.9 mph 71% 0 in 179 W/m2
15:22 64.2 °F 54.1 °F 30.3 in South 3.8 mph 6.9 mph 70% 0 in 173 W/m2
15:27 64.8 °F 54.3 °F 30.3 in South 6 mph 6.9 mph 69% 0 in 164 W/m2
15:32 65.1 °F 54.3 °F 30.3 in South 3.1 mph 6.9 mph 68% 0 in 163 W/m2
15:37 65.7 °F 54.9 °F 30.3 in SSE 3.1 mph 6.9 mph 68% 0 in 158 W/m2
15:42 63.9 °F 53.4 °F 30.3 in South 3.8 mph 6.9 mph 69% 0 in 80 W/m2
15:47 62.2 °F 53.4 °F 30.3 in South 3.1 mph 6.9 mph 73% 0 in 79 W/m2
15:52 62.6 °F 53.4 °F 30.3 in South 3.8 mph 6 mph 72% 0 in 97 W/m2
15:57 62.1 °F 53.2 °F 30.3 in South 3.8 mph 6 mph 73% 0 in 77 W/m2
16:02 61.2 °F 52.9 °F 30.3 in SSE 2.2 mph 6 mph 74% 0 in 81 W/m2
16:07 60.4 °F 53.2 °F 30.3 in South 2.2 mph 6.9 mph 77% 0 in 65 W/m2
16:12 60.3 °F 53.4 °F 30.3 in South 2.2 mph 6.9 mph 78% 0 in 47 W/m2
16:17 60.1 °F 53.6 °F 30.3 in SSW 3.1 mph 5.4 mph 79% 0 in 42 W/m2
16:22 59.9 °F 53.4 °F 30.3 in SSW 0.7 mph 6.9 mph 79% 0 in 33 W/m2
16:27 59.5 °F 53.4 °F 30.3 in SSW 3.8 mph 6.9 mph 80% 0 in 21 W/m2
16:32 59.4 °F 53.4 °F 30.3 in South 0.7 mph 6.9 mph 81% 0 in 17 W/m2
16:37 59.2 °F 53.4 °F 30.3 in SSW 1.6 mph 6.9 mph 81% 0 in 16 W/m2
16:42 59.2 °F 53.4 °F 30.3 in Calm   5.4 mph 81% 0 in 12 W/m2
16:47 59.2 °F 53.8 °F 30.3 in Calm   6 mph 82% 0 in 10 W/m2
16:52 59.2 °F 54 °F 30.3 in SSW 1.6 mph 6 mph 83% 0 in 7 W/m2
16:57 59.2 °F 54 °F 30.4 in SSW 2.2 mph 6 mph 83% 0 in 4 W/m2
17:02 59 °F 54 °F 30.4 in Calm   6 mph 83% 0 in 4 W/m2
17:07 59 °F 54 °F 30.4 in SSW 1.6 mph 4.5 mph 83% 0 in 1 W/m2
17:12 59 °F 54 °F 30.4 in Calm   3.8 mph 83% 0 in 0 W/m2
17:17 59 °F 54 °F 30.3 in SSW 0.7 mph 3.8 mph 83% 0 in 0 W/m2
17:22 58.8 °F 54.3 °F 30.4 in Calm   3.1 mph 85% 0 in 0 W/m2
17:27 58.8 °F 54.3 °F 30.4 in Calm   3.1 mph 85% 0 in 0 W/m2
17:32 58.6 °F 54.1 °F 30.4 in Calm     85% 0 in 0 W/m2
17:37 58.6 °F 54.1 °F 30.4 in Calm     85% 0 in 0 W/m2
17:42 58.5 °F 54 °F 30.4 in Calm     85% 0 in 0 W/m2
17:47 58.3 °F 53.8 °F 30.4 in Calm     85% 0 in 0 W/m2
17:52 58.3 °F 53.8 °F 30.4 in Calm     85% 0 in 0 W/m2
17:57 58.3 °F 53.8 °F 30.4 in Calm     85% 0 in 0 W/m2
18:02 58.3 °F 53.8 °F 30.4 in Calm     85% 0 in 0 W/m2
18:07 58.1 °F 53.6 °F 30.4 in Calm     85% 0 in 0 W/m2
18:12 58.1 °F 54 °F 30.4 in Calm     86% 0 in 0 W/m2
18:17 57.9 °F 53.8 °F 30.4 in Calm     86% 0 in 0 W/m2
18:22 57.7 °F 54 °F 30.4 in Calm     87% 0 in 0 W/m2
18:27 57.4 °F 54 °F 30.4 in Calm     88% 0 in 0 W/m2
18:32 57.2 °F 53.8 °F 30.4 in Calm     88% 0 in 0 W/m2
18:37 57.2 °F 53.8 °F 30.4 in Calm     88% 0 in 0 W/m2
18:42 57 °F 53.8 °F 30.4 in Calm     89% 0 in 0 W/m2
18:47 57 °F 53.8 °F 30.4 in Calm     89% 0 in 0 W/m2
18:52 56.8 °F 53.6 °F 30.4 in Calm     89% 0 in 0 W/m2
18:57 56.8 °F 54 °F 30.4 in Calm     90% 0 in 0 W/m2
19:02 56.8 °F 54 °F 30.4 in Calm     90% 0 in 0 W/m2
19:07 56.7 °F 53.8 °F 30.4 in Calm     90% 0 in 0 W/m2
19:12 56.7 °F 53.8 °F 30.4 in Calm     90% 0 in 0 W/m2
19:17 56.5 °F 53.6 °F 30.4 in Calm     90% 0 in 0 W/m2
19:22 56.3 °F 53.4 °F 30.4 in Calm     90% 0 in 0 W/m2
19:28 56.3 °F 53.4 °F 30.4 in Calm     90% 0 in 0 W/m2
19:33 56.1 °F 53.4 °F 30.4 in Calm   1.6 mph 91% 0 in 0 W/m2
19:38 55.9 °F 53.4 °F 30.4 in Calm   3.1 mph 91% 0 in 0 W/m2
19:40 55.9 °F 53.4 °F 30.4 in Calm   3.1 mph 91% 0 in 0 W/m2
19:45 55.9 °F 53.4 °F 30.4 in NNW 1.6 mph 3.1 mph 91% 0 in 0 W/m2
19:50 55.8 °F 53.2 °F 30.4 in Calm   3.1 mph 91% 0 in 0 W/m2
19:55 55.6 °F 53.1 °F 30.4 in Calm   3.1 mph 91% 0 in 0 W/m2
20:00 55.4 °F 52.9 °F 30.4 in North 0.7 mph 2.2 mph 91% 0 in 0 W/m2
20:05 55.2 °F 52.9 °F 30.4 in North 1.6 mph 2.2 mph 92% 0 in 0 W/m2
20:10 54.9 °F 52.5 °F 30.4 in Calm   2.2 mph 92% 0 in 0 W/m2
20:15 54.7 °F 52.3 °F 30.4 in Calm   2.2 mph 92% 0 in 0 W/m2
20:20 54.5 °F 52.2 °F 30.4 in Calm     92% 0 in 0 W/m2
20:25 54.1 °F 52 °F 30.4 in Calm     92% 0 in 0 W/m2
20:30 54 °F 51.6 °F 30.4 in Calm     92% 0 in 0 W/m2
20:35 54 °F 51.6 °F 30.4 in Calm     92% 0 in 0 W/m2
20:40 53.8 °F 51.8 °F 30.4 in Calm     93% 0 in 0 W/m2
20:45 53.8 °F 51.8 °F 30.4 in Calm     93% 0 in 0 W/m2
20:50 53.8 °F 51.8 °F 30.4 in Calm     93% 0 in 0 W/m2
20:55 53.8 °F 52.2 °F 30.4 in Calm     94% 0 in 0 W/m2
21:00 53.8 °F 52.2 °F 30.4 in Calm     94% 0 in 0 W/m2
21:05 53.8 °F 52.2 °F 30.4 in Calm     94% 0 in 0 W/m2
21:10 54 °F 52.3 °F 30.4 in Calm     94% 0 in 0 W/m2
21:15 54 °F 52.5 °F 30.4 in Calm     95% 0 in 0 W/m2
21:20 54.1 °F 52.7 °F 30.4 in Calm     95% 0 in 0 W/m2
21:25 54 °F 52.3 °F 30.4 in Calm     94% 0 in 0 W/m2
21:30 54 °F 52.3 °F 30.4 in Calm     94% 0 in 0 W/m2
21:35 54 °F 52.3 °F 30.4 in Calm     94% 0 in 0 W/m2
21:40 53.8 °F 52.2 °F 30.4 in Calm     94% 0 in 0 W/m2
21:45 53.6 °F 52 °F 30.4 in Calm     94% 0 in 0 W/m2
21:50 53.4 °F 52 °F 30.4 in Calm     95% 0 in 0 W/m2
21:55 53.2 °F 52 °F 30.4 in Calm     95% 0 in 0 W/m2
22:00 53.1 °F 51.6 °F 30.4 in Calm     95% 0 in 0 W/m2
22:05 52.7 °F 51.3 °F 30.4 in Calm     95% 0 in 0 W/m2
22:10 52.5 °F 51.1 °F 30.4 in Calm     95% 0 in 0 W/m2
22:15 52.3 °F 51.1 °F 30.4 in Calm     95% 0 in 0 W/m2
22:20 52.3 °F 51.1 °F 30.4 in Calm     95% 0 in 0 W/m2
22:25 52.2 °F 50.7 °F 30.4 in Calm     95% 0 in 0 W/m2
22:30 51.8 °F 50.4 °F 30.4 in Calm     95% 0 in 0 W/m2
22:35 51.6 °F 50.5 °F 30.4 in Calm     96% 0 in 0 W/m2
22:40 51.4 °F 50.4 °F 30.4 in Calm     96% 0 in 0 W/m2
22:45 51.3 °F 50.2 °F 30.4 in Calm     96% 0 in 0 W/m2
22:47 51.3 °F 50.2 °F 30.4 in Calm     96% 0 in 0 W/m2
22:52 51.3 °F 50.4 °F 30.4 in Calm     97% 0 in 0 W/m2
22:57 51.3 °F 50.4 °F 30.4 in Calm     97% 0 in 0 W/m2
23:02 51.3 °F 50.4 °F 30.4 in Calm     97% 0 in 0 W/m2
23:07 51.3 °F 50.4 °F 30.4 in Calm     97% 0 in 0 W/m2
23:12 51.4 °F 50.5 °F 30.4 in Calm     97% 0 in 0 W/m2
23:17 51.3 °F 50.7 °F 30.4 in Calm     98% 0 in 0 W/m2
23:22 51.4 °F 50.9 °F 30.4 in Calm   1.6 mph 98% 0 in 0 W/m2
23:27 51.4 °F 50.9 °F 30.4 in Calm   1.6 mph 98% 0 in 0 W/m2
23:32 51.8 °F 51.1 °F 30.4 in Calm   1.6 mph 97% 0 in 0 W/m2
23:37 51.4 °F 50.9 °F 30.4 in Calm     98% 0 in 0 W/m2
23:42 51.3 °F 50.7 °F 30.4 in Calm     98% 0 in 0 W/m2
23:47 51.1 °F 50.5 °F 30.4 in Calm     98% 0 in 0 W/m2
23:52 51.1 °F 50.5 °F 30.4 in Calm     98% 0 in 0 W/m2
23:58 51.1 °F 50.5 °F 30.4 in Calm   3.1 mph 98% 0 in 0 W/m2
Northern Hawkes Bay. New Zealand Historic Data
Compliments of Weather Underground - 2 mb